sensor_id;sensor_type;location;lat;lon;timestamp;P1;durP1;ratioP1;P2;durP2;ratioP2
7179;SDS011;3631;42.152;24.756;2022-11-15T00:00:46;46.87;;;28.23;;
7179;SDS011;3631;42.152;24.756;2022-11-15T00:03:13;48.00;;;27.47;;
7179;SDS011;3631;42.152;24.756;2022-11-15T00:05:41;45.47;;;26.27;;
7179;SDS011;3631;42.152;24.756;2022-11-15T00:08:08;44.33;;;26.23;;
7179;SDS011;3631;42.152;24.756;2022-11-15T00:10:35;46.30;;;26.30;;
7179;SDS011;3631;42.152;24.756;2022-11-15T00:13:04;43.80;;;26.60;;
7179;SDS011;3631;42.152;24.756;2022-11-15T00:15:31;42.23;;;25.53;;
7179;SDS011;3631;42.152;24.756;2022-11-15T00:18:02;53.57;;;26.57;;
7179;SDS011;3631;42.152;24.756;2022-11-15T00:20:30;46.57;;;27.40;;
7179;SDS011;3631;42.152;24.756;2022-11-15T00:22:56;47.93;;;26.87;;
7179;SDS011;3631;42.152;24.756;2022-11-15T00:25:23;49.43;;;27.50;;
7179;SDS011;3631;42.152;24.756;2022-11-15T00:27:53;48.20;;;27.20;;
7179;SDS011;3631;42.152;24.756;2022-11-15T00:30:21;43.17;;;25.27;;
7179;SDS011;3631;42.152;24.756;2022-11-15T00:32:48;44.00;;;26.77;;
7179;SDS011;3631;42.152;24.756;2022-11-15T00:35:17;50.17;;;27.10;;
7179;SDS011;3631;42.152;24.756;2022-11-15T00:37:45;46.03;;;27.03;;
7179;SDS011;3631;42.152;24.756;2022-11-15T00:40:13;48.43;;;27.10;;
7179;SDS011;3631;42.152;24.756;2022-11-15T00:42:40;41.70;;;26.27;;
7179;SDS011;3631;42.152;24.756;2022-11-15T00:45:08;45.17;;;25.67;;
7179;SDS011;3631;42.152;24.756;2022-11-15T00:47:35;43.03;;;25.33;;
7179;SDS011;3631;42.152;24.756;2022-11-15T00:50:03;43.50;;;24.60;;
7179;SDS011;3631;42.152;24.756;2022-11-15T00:52:32;44.80;;;25.50;;
7179;SDS011;3631;42.152;24.756;2022-11-15T00:54:58;39.33;;;23.40;;
7179;SDS011;3631;42.152;24.756;2022-11-15T00:57:25;42.53;;;23.07;;
7179;SDS011;3631;42.152;24.756;2022-11-15T00:59:52;43.17;;;24.93;;
7179;SDS011;3631;42.152;24.756;2022-11-15T01:02:19;41.70;;;25.00;;
7179;SDS011;3631;42.152;24.756;2022-11-15T01:04:46;48.67;;;25.70;;
7179;SDS011;3631;42.152;24.756;2022-11-15T01:07:13;42.97;;;25.60;;
7179;SDS011;3631;42.152;24.756;2022-11-15T01:09:41;41.40;;;24.87;;
7179;SDS011;3631;42.152;24.756;2022-11-15T01:12:08;43.67;;;26.67;;
7179;SDS011;3631;42.152;24.756;2022-11-15T01:14:35;47.60;;;25.73;;
7179;SDS011;3631;42.152;24.756;2022-11-15T01:17:02;45.10;;;25.87;;
7179;SDS011;3631;42.152;24.756;2022-11-15T01:19:29;45.40;;;25.83;;
7179;SDS011;3631;42.152;24.756;2022-11-15T01:21:56;45.13;;;27.07;;
7179;SDS011;3631;42.152;24.756;2022-11-15T01:24:22;48.33;;;25.80;;
7179;SDS011;3631;42.152;24.756;2022-11-15T01:26:51;48.80;;;26.23;;
7179;SDS011;3631;42.152;24.756;2022-11-15T01:29:18;51.67;;;27.47;;
7179;SDS011;3631;42.152;24.756;2022-11-15T01:31:44;47.83;;;27.57;;
7179;SDS011;3631;42.152;24.756;2022-11-15T01:34:11;45.03;;;27.37;;
7179;SDS011;3631;42.152;24.756;2022-11-15T01:36:40;41.73;;;26.47;;
7179;SDS011;3631;42.152;24.756;2022-11-15T01:39:07;43.17;;;26.70;;
7179;SDS011;3631;42.152;24.756;2022-11-15T01:41:34;42.73;;;26.07;;
7179;SDS011;3631;42.152;24.756;2022-11-15T01:47:05;43.13;;;26.07;;
7179;SDS011;3631;42.152;24.756;2022-11-15T01:49:35;46.60;;;26.73;;
7179;SDS011;3631;42.152;24.756;2022-11-15T01:52:07;44.77;;;25.57;;
7179;SDS011;3631;42.152;24.756;2022-11-15T01:54:36;46.87;;;25.37;;
7179;SDS011;3631;42.152;24.756;2022-11-15T01:57:04;42.73;;;25.53;;
7179;SDS011;3631;42.152;24.756;2022-11-15T01:59:35;45.10;;;25.73;;
7179;SDS011;3631;42.152;24.756;2022-11-15T02:02:04;40.80;;;25.37;;
7179;SDS011;3631;42.152;24.756;2022-11-15T02:04:31;41.53;;;25.27;;
7179;SDS011;3631;42.152;24.756;2022-11-15T02:07:00;46.20;;;25.53;;
7179;SDS011;3631;42.152;24.756;2022-11-15T02:09:29;42.47;;;24.63;;
7179;SDS011;3631;42.152;24.756;2022-11-15T02:11:56;41.33;;;24.43;;
7179;SDS011;3631;42.152;24.756;2022-11-15T02:14:25;40.13;;;24.37;;
7179;SDS011;3631;42.152;24.756;2022-11-15T02:16:58;47.40;;;26.40;;
7179;SDS011;3631;42.152;24.756;2022-11-15T02:19:36;40.37;;;24.97;;
7179;SDS011;3631;42.152;24.756;2022-11-15T02:22:24;39.43;;;23.73;;
7179;SDS011;3631;42.152;24.756;2022-11-15T02:25:03;39.43;;;23.33;;
7179;SDS011;3631;42.152;24.756;2022-11-15T02:27:53;40.93;;;24.53;;
7179;SDS011;3631;42.152;24.756;2022-11-15T02:30:38;44.47;;;24.17;;
7179;SDS011;3631;42.152;24.756;2022-11-15T02:33:12;40.10;;;23.70;;
7179;SDS011;3631;42.152;24.756;2022-11-15T02:35:48;39.80;;;24.27;;
7179;SDS011;3631;42.152;24.756;2022-11-15T02:38:25;44.70;;;25.37;;
7179;SDS011;3631;42.152;24.756;2022-11-15T02:40:58;42.57;;;25.10;;
7179;SDS011;3631;42.152;24.756;2022-11-15T02:43:30;41.30;;;24.40;;
7179;SDS011;3631;42.152;24.756;2022-11-15T02:46:22;39.37;;;24.33;;
7179;SDS011;3631;42.152;24.756;2022-11-15T02:49:12;44.13;;;24.40;;
7179;SDS011;3631;42.152;24.756;2022-11-15T02:51:41;42.80;;;23.53;;
7179;SDS011;3631;42.152;24.756;2022-11-15T02:54:11;42.30;;;24.93;;
7179;SDS011;3631;42.152;24.756;2022-11-15T02:56:40;38.33;;;23.57;;
7179;SDS011;3631;42.152;24.756;2022-11-15T02:59:13;38.97;;;23.87;;
7179;SDS011;3631;42.152;24.756;2022-11-15T03:01:55;38.37;;;24.57;;
7179;SDS011;3631;42.152;24.756;2022-11-15T03:04:35;43.23;;;25.57;;
7179;SDS011;3631;42.152;24.756;2022-11-15T03:07:10;47.60;;;25.53;;
7179;SDS011;3631;42.152;24.756;2022-11-15T03:09:42;40.53;;;23.90;;
7179;SDS011;3631;42.152;24.756;2022-11-15T03:12:19;41.50;;;24.37;;
7179;SDS011;3631;42.152;24.756;2022-11-15T03:14:54;48.37;;;25.27;;
7179;SDS011;3631;42.152;24.756;2022-11-15T03:17:26;41.07;;;24.17;;
7179;SDS011;3631;42.152;24.756;2022-11-15T03:19:57;42.23;;;25.17;;
7179;SDS011;3631;42.152;24.756;2022-11-15T03:22:26;43.70;;;25.33;;
7179;SDS011;3631;42.152;24.756;2022-11-15T03:24:56;43.17;;;25.17;;
7179;SDS011;3631;42.152;24.756;2022-11-15T03:27:26;43.57;;;25.10;;
7179;SDS011;3631;42.152;24.756;2022-11-15T03:29:59;49.43;;;25.07;;
7179;SDS011;3631;42.152;24.756;2022-11-15T03:32:30;44.67;;;25.50;;
7179;SDS011;3631;42.152;24.756;2022-11-15T03:35:00;42.80;;;24.83;;
7179;SDS011;3631;42.152;24.756;2022-11-15T03:37:30;40.40;;;23.87;;
7179;SDS011;3631;42.152;24.756;2022-11-15T03:40:01;43.33;;;24.70;;
7179;SDS011;3631;42.152;24.756;2022-11-15T03:42:30;43.80;;;23.53;;
7179;SDS011;3631;42.152;24.756;2022-11-15T03:45:02;43.83;;;24.53;;
7179;SDS011;3631;42.152;24.756;2022-11-15T03:47:36;44.20;;;23.70;;
7179;SDS011;3631;42.152;24.756;2022-11-15T03:50:07;37.43;;;24.00;;
7179;SDS011;3631;42.152;24.756;2022-11-15T03:52:37;43.63;;;24.70;;
7179;SDS011;3631;42.152;24.756;2022-11-15T03:55:05;41.77;;;24.43;;
7179;SDS011;3631;42.152;24.756;2022-11-15T03:57:34;42.77;;;23.87;;
7179;SDS011;3631;42.152;24.756;2022-11-15T04:00:01;39.90;;;24.20;;
7179;SDS011;3631;42.152;24.756;2022-11-15T04:02:29;44.00;;;25.00;;
7179;SDS011;3631;42.152;24.756;2022-11-15T04:04:57;38.17;;;24.17;;
7179;SDS011;3631;42.152;24.756;2022-11-15T04:07:24;42.30;;;23.47;;
7179;SDS011;3631;42.152;24.756;2022-11-15T04:09:51;38.27;;;23.57;;
7179;SDS011;3631;42.152;24.756;2022-11-15T04:12:30;41.17;;;24.10;;
7179;SDS011;3631;42.152;24.756;2022-11-15T04:15:01;41.67;;;22.57;;
7179;SDS011;3631;42.152;24.756;2022-11-15T04:17:36;37.57;;;22.57;;
7179;SDS011;3631;42.152;24.756;2022-11-15T04:20:07;36.33;;;22.63;;
7179;SDS011;3631;42.152;24.756;2022-11-15T04:22:54;34.77;;;21.37;;
7179;SDS011;3631;42.152;24.756;2022-11-15T04:25:39;43.77;;;24.23;;
7179;SDS011;3631;42.152;24.756;2022-11-15T04:28:06;38.20;;;23.60;;
7179;SDS011;3631;42.152;24.756;2022-11-15T04:30:33;38.73;;;23.63;;
7179;SDS011;3631;42.152;24.756;2022-11-15T04:33:00;38.77;;;22.77;;
7179;SDS011;3631;42.152;24.756;2022-11-15T04:35:28;39.60;;;21.67;;
7179;SDS011;3631;42.152;24.756;2022-11-15T04:37:56;37.53;;;22.70;;
7179;SDS011;3631;42.152;24.756;2022-11-15T04:40:22;36.73;;;21.80;;
7179;SDS011;3631;42.152;24.756;2022-11-15T04:42:49;38.67;;;22.80;;
7179;SDS011;3631;42.152;24.756;2022-11-15T04:45:16;34.23;;;21.63;;
7179;SDS011;3631;42.152;24.756;2022-11-15T04:47:43;37.33;;;22.07;;
7179;SDS011;3631;42.152;24.756;2022-11-15T04:50:11;38.57;;;22.10;;
7179;SDS011;3631;42.152;24.756;2022-11-15T04:52:41;36.87;;;21.90;;
7179;SDS011;3631;42.152;24.756;2022-11-15T04:55:09;34.57;;;21.67;;
7179;SDS011;3631;42.152;24.756;2022-11-15T04:57:36;39.93;;;21.37;;
7179;SDS011;3631;42.152;24.756;2022-11-15T05:00:04;34.70;;;20.57;;
7179;SDS011;3631;42.152;24.756;2022-11-15T05:02:33;38.30;;;20.83;;
7179;SDS011;3631;42.152;24.756;2022-11-15T05:05:13;36.40;;;20.43;;
7179;SDS011;3631;42.152;24.756;2022-11-15T05:07:42;31.57;;;19.47;;
7179;SDS011;3631;42.152;24.756;2022-11-15T05:10:09;29.47;;;19.63;;
7179;SDS011;3631;42.152;24.756;2022-11-15T05:12:36;31.27;;;20.00;;
7179;SDS011;3631;42.152;24.756;2022-11-15T05:15:03;32.07;;;20.43;;
7179;SDS011;3631;42.152;24.756;2022-11-15T05:17:30;29.60;;;20.17;;
7179;SDS011;3631;42.152;24.756;2022-11-15T05:19:57;32.27;;;18.47;;
7179;SDS011;3631;42.152;24.756;2022-11-15T05:22:24;33.80;;;20.40;;
7179;SDS011;3631;42.152;24.756;2022-11-15T05:24:52;31.33;;;19.93;;
7179;SDS011;3631;42.152;24.756;2022-11-15T05:27:19;33.10;;;20.50;;
7179;SDS011;3631;42.152;24.756;2022-11-15T05:29:46;37.50;;;21.70;;
7179;SDS011;3631;42.152;24.756;2022-11-15T05:32:13;36.73;;;21.23;;
7179;SDS011;3631;42.152;24.756;2022-11-15T05:34:40;37.67;;;21.53;;
7179;SDS011;3631;42.152;24.756;2022-11-15T05:37:07;40.77;;;21.80;;
7179;SDS011;3631;42.152;24.756;2022-11-15T05:39:34;32.50;;;20.23;;
7179;SDS011;3631;42.152;24.756;2022-11-15T05:42:04;30.70;;;20.73;;
7179;SDS011;3631;42.152;24.756;2022-11-15T05:44:35;33.57;;;20.07;;
7179;SDS011;3631;42.152;24.756;2022-11-15T05:47:03;33.50;;;19.20;;
7179;SDS011;3631;42.152;24.756;2022-11-15T05:49:34;32.90;;;18.93;;
7179;SDS011;3631;42.152;24.756;2022-11-15T05:52:05;27.13;;;17.83;;
7179;SDS011;3631;42.152;24.756;2022-11-15T05:54:34;33.53;;;17.10;;
7179;SDS011;3631;42.152;24.756;2022-11-15T05:57:04;26.77;;;17.63;;
7179;SDS011;3631;42.152;24.756;2022-11-15T05:59:32;26.37;;;17.30;;
7179;SDS011;3631;42.152;24.756;2022-11-15T06:02:00;36.10;;;18.40;;
7179;SDS011;3631;42.152;24.756;2022-11-15T06:04:27;33.33;;;18.10;;
7179;SDS011;3631;42.152;24.756;2022-11-15T06:06:54;37.37;;;19.57;;
7179;SDS011;3631;42.152;24.756;2022-11-15T06:09:21;34.93;;;19.47;;
7179;SDS011;3631;42.152;24.756;2022-11-15T06:11:48;38.37;;;20.93;;
7179;SDS011;3631;42.152;24.756;2022-11-15T06:14:16;32.60;;;19.43;;
7179;SDS011;3631;42.152;24.756;2022-11-15T06:16:43;36.43;;;20.13;;
7179;SDS011;3631;42.152;24.756;2022-11-15T06:19:10;38.50;;;18.37;;
7179;SDS011;3631;42.152;24.756;2022-11-15T06:21:37;29.97;;;17.90;;
7179;SDS011;3631;42.152;24.756;2022-11-15T06:24:04;29.30;;;17.07;;
7179;SDS011;3631;42.152;24.756;2022-11-15T06:26:32;28.00;;;17.27;;
7179;SDS011;3631;42.152;24.756;2022-11-15T06:28:59;30.87;;;17.97;;
7179;SDS011;3631;42.152;24.756;2022-11-15T06:31:27;25.57;;;16.40;;
7179;SDS011;3631;42.152;24.756;2022-11-15T06:33:54;33.83;;;19.00;;
7179;SDS011;3631;42.152;24.756;2022-11-15T06:36:21;31.57;;;18.43;;
7179;SDS011;3631;42.152;24.756;2022-11-15T06:38:48;30.07;;;18.17;;
7179;SDS011;3631;42.152;24.756;2022-11-15T06:41:16;30.73;;;18.47;;
7179;SDS011;3631;42.152;24.756;2022-11-15T06:43:43;33.43;;;20.20;;
7179;SDS011;3631;42.152;24.756;2022-11-15T06:46:10;34.80;;;20.67;;
7179;SDS011;3631;42.152;24.756;2022-11-15T06:48:38;32.33;;;19.87;;
7179;SDS011;3631;42.152;24.756;2022-11-15T06:51:05;31.77;;;18.23;;
7179;SDS011;3631;42.152;24.756;2022-11-15T06:53:33;30.80;;;18.80;;
7179;SDS011;3631;42.152;24.756;2022-11-15T06:56:00;28.77;;;18.43;;
7179;SDS011;3631;42.152;24.756;2022-11-15T06:58:28;29.17;;;17.63;;
7179;SDS011;3631;42.152;24.756;2022-11-15T07:00:57;28.17;;;17.33;;
7179;SDS011;3631;42.152;24.756;2022-11-15T07:03:25;36.53;;;17.87;;
7179;SDS011;3631;42.152;24.756;2022-11-15T07:05:54;29.30;;;18.13;;
7179;SDS011;3631;42.152;24.756;2022-11-15T07:08:22;31.13;;;18.33;;
7179;SDS011;3631;42.152;24.756;2022-11-15T07:10:50;27.47;;;17.17;;
7179;SDS011;3631;42.152;24.756;2022-11-15T07:13:17;30.07;;;17.87;;
7179;SDS011;3631;42.152;24.756;2022-11-15T07:15:44;29.00;;;18.27;;
7179;SDS011;3631;42.152;24.756;2022-11-15T07:18:11;30.90;;;17.90;;
7179;SDS011;3631;42.152;24.756;2022-11-15T07:20:38;28.00;;;16.90;;
7179;SDS011;3631;42.152;24.756;2022-11-15T07:23:07;30.87;;;17.93;;
7179;SDS011;3631;42.152;24.756;2022-11-15T07:25:33;28.30;;;18.20;;
7179;SDS011;3631;42.152;24.756;2022-11-15T07:28:00;26.50;;;16.80;;
7179;SDS011;3631;42.152;24.756;2022-11-15T07:30:28;25.30;;;17.43;;
7179;SDS011;3631;42.152;24.756;2022-11-15T07:32:56;24.23;;;17.57;;
7179;SDS011;3631;42.152;24.756;2022-11-15T07:35:23;27.80;;;18.23;;
7179;SDS011;3631;42.152;24.756;2022-11-15T07:37:54;30.20;;;17.70;;
7179;SDS011;3631;42.152;24.756;2022-11-15T07:40:24;32.50;;;17.23;;
7179;SDS011;3631;42.152;24.756;2022-11-15T07:42:51;29.23;;;17.07;;
7179;SDS011;3631;42.152;24.756;2022-11-15T07:45:22;26.30;;;16.23;;
7179;SDS011;3631;42.152;24.756;2022-11-15T07:47:51;29.80;;;16.77;;
7179;SDS011;3631;42.152;24.756;2022-11-15T07:50:18;21.83;;;15.60;;
7179;SDS011;3631;42.152;24.756;2022-11-15T07:52:46;29.60;;;16.30;;
7179;SDS011;3631;42.152;24.756;2022-11-15T07:55:13;24.47;;;15.90;;
7179;SDS011;3631;42.152;24.756;2022-11-15T07:57:41;24.57;;;16.50;;
7179;SDS011;3631;42.152;24.756;2022-11-15T08:00:09;28.40;;;17.60;;
7179;SDS011;3631;42.152;24.756;2022-11-15T08:02:37;25.37;;;16.87;;
7179;SDS011;3631;42.152;24.756;2022-11-15T08:05:04;30.73;;;17.30;;
7179;SDS011;3631;42.152;24.756;2022-11-15T08:07:31;31.67;;;17.17;;
7179;SDS011;3631;42.152;24.756;2022-11-15T08:09:59;26.83;;;18.17;;
7179;SDS011;3631;42.152;24.756;2022-11-15T08:12:26;23.70;;;16.57;;
7179;SDS011;3631;42.152;24.756;2022-11-15T08:14:55;25.40;;;17.37;;
7179;SDS011;3631;42.152;24.756;2022-11-15T08:17:22;28.10;;;17.67;;
7179;SDS011;3631;42.152;24.756;2022-11-15T08:19:49;33.27;;;18.77;;
7179;SDS011;3631;42.152;24.756;2022-11-15T08:22:19;32.13;;;18.10;;
7179;SDS011;3631;42.152;24.756;2022-11-15T08:24:51;34.70;;;18.60;;
7179;SDS011;3631;42.152;24.756;2022-11-15T08:27:21;25.17;;;17.20;;
7179;SDS011;3631;42.152;24.756;2022-11-15T08:29:52;28.00;;;19.07;;
7179;SDS011;3631;42.152;24.756;2022-11-15T08:32:25;35.27;;;19.57;;
7179;SDS011;3631;42.152;24.756;2022-11-15T08:34:52;31.13;;;20.17;;
7179;SDS011;3631;42.152;24.756;2022-11-15T08:37:19;27.80;;;18.80;;
7179;SDS011;3631;42.152;24.756;2022-11-15T08:39:46;28.43;;;18.80;;
7179;SDS011;3631;42.152;24.756;2022-11-15T08:42:13;33.90;;;19.50;;
7179;SDS011;3631;42.152;24.756;2022-11-15T08:44:41;37.97;;;20.77;;
7179;SDS011;3631;42.152;24.756;2022-11-15T08:47:11;30.67;;;19.57;;
7179;SDS011;3631;42.152;24.756;2022-11-15T08:49:40;36.53;;;20.80;;
7179;SDS011;3631;42.152;24.756;2022-11-15T08:52:07;39.20;;;21.47;;
7179;SDS011;3631;42.152;24.756;2022-11-15T08:54:34;32.47;;;19.87;;
7179;SDS011;3631;42.152;24.756;2022-11-15T08:57:02;37.07;;;20.20;;
7179;SDS011;3631;42.152;24.756;2022-11-15T08:59:29;35.60;;;19.97;;
7179;SDS011;3631;42.152;24.756;2022-11-15T09:01:57;33.70;;;21.03;;
7179;SDS011;3631;42.152;24.756;2022-11-15T09:04:25;34.60;;;21.90;;
7179;SDS011;3631;42.152;24.756;2022-11-15T09:06:56;40.13;;;23.13;;
7179;SDS011;3631;42.152;24.756;2022-11-15T09:09:23;35.50;;;22.77;;
7179;SDS011;3631;42.152;24.756;2022-11-15T09:11:50;37.77;;;23.47;;
7179;SDS011;3631;42.152;24.756;2022-11-15T09:14:19;35.47;;;23.47;;
7179;SDS011;3631;42.152;24.756;2022-11-15T09:16:49;48.47;;;24.40;;
7179;SDS011;3631;42.152;24.756;2022-11-15T09:19:20;41.30;;;24.43;;
7179;SDS011;3631;42.152;24.756;2022-11-15T09:21:47;43.03;;;27.00;;
7179;SDS011;3631;42.152;24.756;2022-11-15T09:24:18;45.27;;;25.60;;
7179;SDS011;3631;42.152;24.756;2022-11-15T09:26:45;42.13;;;26.57;;
7179;SDS011;3631;42.152;24.756;2022-11-15T09:29:14;40.97;;;24.90;;
7179;SDS011;3631;42.152;24.756;2022-11-15T09:31:47;42.53;;;26.80;;
7179;SDS011;3631;42.152;24.756;2022-11-15T09:34:14;42.53;;;26.77;;
7179;SDS011;3631;42.152;24.756;2022-11-15T09:36:41;42.53;;;25.57;;
7179;SDS011;3631;42.152;24.756;2022-11-15T09:39:10;41.33;;;25.37;;
7179;SDS011;3631;42.152;24.756;2022-11-15T09:44:42;40.33;;;26.30;;
7179;SDS011;3631;42.152;24.756;2022-11-15T09:47:29;41.60;;;25.40;;
7179;SDS011;3631;42.152;24.756;2022-11-15T09:50:20;41.63;;;25.27;;
7179;SDS011;3631;42.152;24.756;2022-11-15T09:53:00;41.47;;;25.40;;
7179;SDS011;3631;42.152;24.756;2022-11-15T09:55:30;44.47;;;25.33;;
7179;SDS011;3631;42.152;24.756;2022-11-15T09:58:07;41.23;;;25.27;;
7179;SDS011;3631;42.152;24.756;2022-11-15T10:00:44;39.07;;;25.03;;
7179;SDS011;3631;42.152;24.756;2022-11-15T10:03:18;38.60;;;24.97;;
7179;SDS011;3631;42.152;24.756;2022-11-15T10:05:51;42.93;;;24.77;;
7179;SDS011;3631;42.152;24.756;2022-11-15T10:11:17;34.90;;;24.10;;
7179;SDS011;3631;42.152;24.756;2022-11-15T10:13:48;44.07;;;26.47;;
7179;SDS011;3631;42.152;24.756;2022-11-15T10:16:24;43.83;;;26.97;;
7179;SDS011;3631;42.152;24.756;2022-11-15T10:19:07;43.07;;;26.57;;
7179;SDS011;3631;42.152;24.756;2022-11-15T10:21:48;38.73;;;26.00;;
7179;SDS011;3631;42.152;24.756;2022-11-15T10:24:27;44.73;;;26.37;;
7179;SDS011;3631;42.152;24.756;2022-11-15T10:26:57;39.37;;;25.33;;
7179;SDS011;3631;42.152;24.756;2022-11-15T10:29:25;44.10;;;26.50;;
7179;SDS011;3631;42.152;24.756;2022-11-15T10:31:52;47.87;;;26.77;;
7179;SDS011;3631;42.152;24.756;2022-11-15T10:34:20;44.17;;;26.87;;
7179;SDS011;3631;42.152;24.756;2022-11-15T10:36:53;39.87;;;26.00;;
7179;SDS011;3631;42.152;24.756;2022-11-15T10:39:22;45.47;;;26.20;;
7179;SDS011;3631;42.152;24.756;2022-11-15T10:41:49;42.43;;;26.40;;
7179;SDS011;3631;42.152;24.756;2022-11-15T10:44:22;39.63;;;24.73;;
7179;SDS011;3631;42.152;24.756;2022-11-15T10:47:06;40.37;;;25.43;;
7179;SDS011;3631;42.152;24.756;2022-11-15T10:49:53;37.67;;;24.27;;
7179;SDS011;3631;42.152;24.756;2022-11-15T10:52:21;38.67;;;24.80;;
7179;SDS011;3631;42.152;24.756;2022-11-15T10:54:50;38.03;;;24.93;;
7179;SDS011;3631;42.152;24.756;2022-11-15T10:57:21;36.23;;;24.30;;
7179;SDS011;3631;42.152;24.756;2022-11-15T10:59:53;42.90;;;25.67;;
7179;SDS011;3631;42.152;24.756;2022-11-15T11:02:33;39.33;;;24.97;;
7179;SDS011;3631;42.152;24.756;2022-11-15T11:05:03;41.10;;;26.07;;
7179;SDS011;3631;42.152;24.756;2022-11-15T11:07:33;34.83;;;24.17;;
7179;SDS011;3631;42.152;24.756;2022-11-15T11:10:04;39.60;;;25.53;;
7179;SDS011;3631;42.152;24.756;2022-11-15T11:12:43;36.73;;;25.37;;
7179;SDS011;3631;42.152;24.756;2022-11-15T11:15:11;39.43;;;25.23;;
7179;SDS011;3631;42.152;24.756;2022-11-15T11:17:46;38.97;;;24.57;;
7179;SDS011;3631;42.152;24.756;2022-11-15T11:20:25;37.93;;;24.90;;
7179;SDS011;3631;42.152;24.756;2022-11-15T11:23:06;36.40;;;24.13;;
7179;SDS011;3631;42.152;24.756;2022-11-15T11:25:49;40.90;;;24.07;;
7179;SDS011;3631;42.152;24.756;2022-11-15T11:28:30;39.97;;;24.10;;
7179;SDS011;3631;42.152;24.756;2022-11-15T11:31:09;35.40;;;24.97;;
7179;SDS011;3631;42.152;24.756;2022-11-15T11:33:48;39.23;;;25.17;;
7179;SDS011;3631;42.152;24.756;2022-11-15T11:36:24;38.97;;;25.87;;
7179;SDS011;3631;42.152;24.756;2022-11-15T11:38:57;39.87;;;25.70;;
7179;SDS011;3631;42.152;24.756;2022-11-15T11:41:38;42.27;;;24.60;;
7179;SDS011;3631;42.152;24.756;2022-11-15T11:44:18;40.13;;;24.67;;
7179;SDS011;3631;42.152;24.756;2022-11-15T11:46:55;37.50;;;25.40;;
7179;SDS011;3631;42.152;24.756;2022-11-15T11:49:29;38.87;;;26.13;;
7179;SDS011;3631;42.152;24.756;2022-11-15T11:52:03;37.43;;;25.63;;
7179;SDS011;3631;42.152;24.756;2022-11-15T11:54:38;39.67;;;24.53;;
7179;SDS011;3631;42.152;24.756;2022-11-15T11:57:13;38.07;;;24.83;;
7179;SDS011;3631;42.152;24.756;2022-11-15T11:59:50;41.63;;;24.93;;
7179;SDS011;3631;42.152;24.756;2022-11-15T12:02:24;39.40;;;25.53;;
7179;SDS011;3631;42.152;24.756;2022-11-15T12:04:58;36.03;;;24.40;;
7179;SDS011;3631;42.152;24.756;2022-11-15T12:07:30;37.03;;;23.57;;
7179;SDS011;3631;42.152;24.756;2022-11-15T12:10:01;37.93;;;24.13;;
7179;SDS011;3631;42.152;24.756;2022-11-15T12:12:41;37.93;;;23.77;;
7179;SDS011;3631;42.152;24.756;2022-11-15T12:15:17;39.80;;;24.77;;
7179;SDS011;3631;42.152;24.756;2022-11-15T12:17:47;35.57;;;21.90;;
7179;SDS011;3631;42.152;24.756;2022-11-15T12:20:17;35.87;;;24.07;;
7179;SDS011;3631;42.152;24.756;2022-11-15T12:22:47;41.83;;;24.17;;
7179;SDS011;3631;42.152;24.756;2022-11-15T12:25:20;32.17;;;22.17;;
7179;SDS011;3631;42.152;24.756;2022-11-15T12:27:53;36.30;;;25.10;;
7179;SDS011;3631;42.152;24.756;2022-11-15T12:30:23;32.67;;;22.93;;
7179;SDS011;3631;42.152;24.756;2022-11-15T12:32:54;32.13;;;22.40;;
7179;SDS011;3631;42.152;24.756;2022-11-15T12:35:27;37.37;;;24.17;;
7179;SDS011;3631;42.152;24.756;2022-11-15T12:37:58;39.07;;;24.70;;
7179;SDS011;3631;42.152;24.756;2022-11-15T12:40:28;35.37;;;23.33;;
7179;SDS011;3631;42.152;24.756;2022-11-15T12:43:01;39.67;;;24.57;;
7179;SDS011;3631;42.152;24.756;2022-11-15T12:45:44;35.63;;;23.67;;
7179;SDS011;3631;42.152;24.756;2022-11-15T12:51:13;34.70;;;23.73;;
7179;SDS011;3631;42.152;24.756;2022-11-15T12:53:40;35.63;;;24.90;;
7179;SDS011;3631;42.152;24.756;2022-11-15T12:56:23;41.53;;;25.83;;
7179;SDS011;3631;42.152;24.756;2022-11-15T12:58:51;35.37;;;23.90;;
7179;SDS011;3631;42.152;24.756;2022-11-15T13:04:27;37.93;;;24.70;;
7179;SDS011;3631;42.152;24.756;2022-11-15T13:06:59;40.33;;;25.13;;
7179;SDS011;3631;42.152;24.756;2022-11-15T13:15:32;36.67;;;25.03;;
7179;SDS011;3631;42.152;24.756;2022-11-15T13:20:57;39.50;;;25.20;;
7179;SDS011;3631;42.152;24.756;2022-11-15T13:23:26;37.37;;;24.90;;
7179;SDS011;3631;42.152;24.756;2022-11-15T13:25:56;38.27;;;24.67;;
7179;SDS011;3631;42.152;24.756;2022-11-15T13:28:32;36.63;;;24.33;;
7179;SDS011;3631;42.152;24.756;2022-11-15T13:31:01;35.60;;;24.53;;
7179;SDS011;3631;42.152;24.756;2022-11-15T13:33:30;42.07;;;25.17;;
7179;SDS011;3631;42.152;24.756;2022-11-15T13:36:00;35.53;;;24.63;;
7179;SDS011;3631;42.152;24.756;2022-11-15T13:38:32;39.33;;;24.70;;
7179;SDS011;3631;42.152;24.756;2022-11-15T13:41:10;33.97;;;23.93;;
7179;SDS011;3631;42.152;24.756;2022-11-15T13:43:41;38.47;;;25.80;;
7179;SDS011;3631;42.152;24.756;2022-11-15T13:46:11;48.43;;;27.30;;
7179;SDS011;3631;42.152;24.756;2022-11-15T13:48:39;40.17;;;26.60;;
7179;SDS011;3631;42.152;24.756;2022-11-15T13:51:08;46.17;;;28.33;;
7179;SDS011;3631;42.152;24.756;2022-11-15T13:53:43;44.50;;;28.10;;
7179;SDS011;3631;42.152;24.756;2022-11-15T13:56:14;43.77;;;27.93;;
7179;SDS011;3631;42.152;24.756;2022-11-15T13:58:43;45.07;;;27.70;;
7179;SDS011;3631;42.152;24.756;2022-11-15T14:01:14;45.60;;;28.83;;
7179;SDS011;3631;42.152;24.756;2022-11-15T14:03:48;44.77;;;26.77;;
7179;SDS011;3631;42.152;24.756;2022-11-15T14:06:18;41.93;;;27.97;;
7179;SDS011;3631;42.152;24.756;2022-11-15T14:09:03;41.93;;;27.33;;
7179;SDS011;3631;42.152;24.756;2022-11-15T14:11:50;44.97;;;27.40;;
7179;SDS011;3631;42.152;24.756;2022-11-15T14:14:19;45.77;;;30.00;;
7179;SDS011;3631;42.152;24.756;2022-11-15T14:16:48;43.77;;;28.10;;
7179;SDS011;3631;42.152;24.756;2022-11-15T14:19:34;50.27;;;29.20;;
7179;SDS011;3631;42.152;24.756;2022-11-15T14:22:10;46.70;;;29.80;;
7179;SDS011;3631;42.152;24.756;2022-11-15T14:24:40;43.00;;;28.57;;
7179;SDS011;3631;42.152;24.756;2022-11-15T14:27:16;50.10;;;29.27;;
7179;SDS011;3631;42.152;24.756;2022-11-15T14:29:44;49.47;;;31.07;;
7179;SDS011;3631;42.152;24.756;2022-11-15T14:32:12;51.83;;;32.07;;
7179;SDS011;3631;42.152;24.756;2022-11-15T14:34:41;54.40;;;31.57;;
7179;SDS011;3631;42.152;24.756;2022-11-15T14:37:10;47.13;;;30.50;;
7179;SDS011;3631;42.152;24.756;2022-11-15T14:39:47;71.60;;;37.77;;
7179;SDS011;3631;42.152;24.756;2022-11-15T14:42:14;110.83;;;50.73;;
7179;SDS011;3631;42.152;24.756;2022-11-15T14:44:41;113.77;;;50.97;;
7179;SDS011;3631;42.152;24.756;2022-11-15T14:47:08;100.40;;;45.57;;
7179;SDS011;3631;42.152;24.756;2022-11-15T14:49:35;80.00;;;41.93;;
7179;SDS011;3631;42.152;24.756;2022-11-15T14:52:02;62.63;;;36.47;;
7179;SDS011;3631;42.152;24.756;2022-11-15T14:54:31;62.53;;;34.27;;
7179;SDS011;3631;42.152;24.756;2022-11-15T14:56:59;53.43;;;35.23;;
7179;SDS011;3631;42.152;24.756;2022-11-15T14:59:26;59.70;;;35.17;;
7179;SDS011;3631;42.152;24.756;2022-11-15T15:01:53;59.00;;;35.23;;
7179;SDS011;3631;42.152;24.756;2022-11-15T15:04:20;59.27;;;33.53;;
7179;SDS011;3631;42.152;24.756;2022-11-15T15:06:47;60.10;;;34.37;;
7179;SDS011;3631;42.152;24.756;2022-11-15T15:09:14;55.70;;;32.40;;
7179;SDS011;3631;42.152;24.756;2022-11-15T15:11:41;55.23;;;33.00;;
7179;SDS011;3631;42.152;24.756;2022-11-15T15:14:09;51.07;;;30.93;;
7179;SDS011;3631;42.152;24.756;2022-11-15T15:16:36;53.77;;;31.93;;